Time;durP1;ratioP1;P1;durP2;ratioP2;P2;SDS_P1;SDS_P2;PMS_P1;PMS_P2;Temp;Humidity;BMP_temperature;BMP_pressure;BME280_temperature;BME280_humidity;BME280_pressure;Samples;Min_cycle;Max_cycle;Signal;HPM_P1;HPM_P2
2023/03/10 00:01:15;;;;;;;40.38;21.58;;;1.30;99.90;;;;;;4970810;28;20046;-60
2023/03/10 00:03:41;;;;;;;40.67;20.83;;;1.30;99.90;;;;;;4945105;28;26663;-59
2023/03/10 00:06:08;;;;;;;38.13;21.52;;;1.30;99.90;;;;;;4967038;28;20053;-60
2023/03/10 00:08:34;;;;;;;36.58;20.67;;;1.30;99.90;;;;;;4947518;28;21538;-59
2023/03/10 00:11:00;;;;;;;38.58;22.00;;;1.30;99.90;;;;;;4948067;28;20049;-61
2023/03/10 00:13:26;;;;;;;39.03;21.85;;;1.30;99.90;;;;;;4967613;28;20515;-60
2023/03/10 00:15:52;;;;;;;36.92;21.65;;;1.30;99.90;;;;;;4925667;28;21000;-61
2023/03/10 00:18:18;;;;;;;39.40;21.95;;;1.30;99.90;;;;;;4967520;28;20052;-60
2023/03/10 00:20:44;;;;;;;38.95;22.10;;;1.30;99.90;;;;;;4951539;28;20061;-60
2023/03/10 00:23:10;;;;;;;39.08;21.25;;;1.30;99.90;;;;;;4947966;28;20489;-59
2023/03/10 00:25:35;;;;;;;36.03;20.85;;;1.30;99.90;;;;;;4953746;28;20385;-60
2023/03/10 00:28:01;;;;;;;33.97;20.13;;;1.30;99.90;;;;;;4952170;28;20080;-60
2023/03/10 00:30:28;;;;;;;38.95;22.08;;;1.30;99.90;;;;;;4948800;28;20814;-59
2023/03/10 00:32:54;;;;;;;40.42;22.02;;;1.30;99.90;;;;;;4947816;28;20046;-61
2023/03/10 00:35:20;;;;;;;39.20;23.00;;;1.30;99.90;;;;;;4947812;28;20555;-59
2023/03/10 00:37:46;;;;;;;38.63;21.88;;;1.30;99.90;;;;;;4967004;28;20046;-60
2023/03/10 00:40:13;;;;;;;38.28;22.05;;;1.30;99.90;;;;;;4968037;28;20093;-59
2023/03/10 00:42:39;;;;;;;38.25;21.55;;;1.30;99.90;;;;;;4934122;28;20158;-61
2023/03/10 00:45:06;;;;;;;39.70;23.08;;;1.40;99.90;;;;;;4967284;28;20046;-61
2023/03/10 00:47:32;;;;;;;38.78;22.20;;;1.30;99.90;;;;;;4969264;28;20054;-60
2023/03/10 00:49:58;;;;;;;39.90;21.80;;;1.30;99.90;;;;;;4930983;28;20050;-61
2023/03/10 00:52:24;;;;;;;31.33;18.77;;;1.40;99.90;;;;;;4952814;28;20112;-61
2023/03/10 00:54:50;;;;;;;32.78;18.98;;;1.30;99.90;;;;;;4938466;28;20057;-59
2023/03/10 00:57:17;;;;;;;31.30;18.52;;;1.30;99.90;;;;;;4952640;28;20101;-61
2023/03/10 00:59:42;;;;;;;28.92;16.75;;;1.40;99.90;;;;;;4951879;28;20076;-59
2023/03/10 01:02:08;;;;;;;27.65;16.50;;;1.40;99.90;;;;;;4950800;28;20039;-61
2023/03/10 01:04:34;;;;;;;25.77;15.32;;;1.30;99.90;;;;;;4951502;28;20050;-59
2023/03/10 01:07:00;;;;;;;26.92;15.48;;;1.30;99.90;;;;;;4973585;28;20338;-60
2023/03/10 01:09:26;;;;;;;26.02;15.10;;;1.30;99.90;;;;;;4952867;28;20099;-61
2023/03/10 01:11:52;;;;;;;26.40;15.45;;;1.40;99.90;;;;;;4950401;28;20069;-60
2023/03/10 01:14:18;;;;;;;24.45;15.10;;;1.30;99.90;;;;;;4968197;28;20073;-59
2023/03/10 01:16:44;;;;;;;24.92;15.20;;;1.30;99.90;;;;;;4949054;28;20054;-61
2023/03/10 01:19:09;;;;;;;27.17;14.85;;;1.50;99.90;;;;;;4967620;28;20130;-59
2023/03/10 01:21:37;;;;;;;24.15;14.43;;;1.40;99.90;;;;;;4966109;28;20065;-60
2023/03/10 01:24:04;;;;;;;25.27;14.63;;;1.40;99.90;;;;;;4968272;28;20042;-60
2023/03/10 01:26:30;;;;;;;25.30;14.30;;;1.40;99.90;;;;;;4943198;28;20038;-60
2023/03/10 01:28:57;;;;;;;24.83;14.98;;;1.40;99.90;;;;;;4966369;28;20054;-61
2023/03/10 01:31:22;;;;;;;25.33;14.68;;;1.40;99.90;;;;;;4950902;28;20046;-60
2023/03/10 01:33:49;;;;;;;24.02;14.10;;;1.40;99.90;;;;;;4966776;28;20054;-60
2023/03/10 01:36:24;;;;;;;25.17;14.45;;;1.40;99.90;;;;;;4965092;28;20053;-61
2023/03/10 01:38:52;;;;;;;25.98;14.57;;;1.40;99.90;;;;;;4948850;28;20050;-59
2023/03/10 01:41:18;;;;;;;23.80;14.82;;;1.40;99.90;;;;;;4969087;28;20054;-59
2023/03/10 01:43:53;;;;;;;25.17;14.93;;;1.40;99.90;;;;;;4971276;28;20176;-60
2023/03/10 01:46:30;;;;;;;25.92;14.75;;;1.40;99.90;;;;;;4971062;28;20449;-60
2023/03/10 01:49:01;;;;;;;24.85;13.40;;;1.50;99.90;;;;;;4955190;28;20050;-59
2023/03/10 01:51:30;;;;;;;24.75;14.38;;;1.40;99.90;;;;;;4971265;28;20433;-60
2023/03/10 01:53:56;;;;;;;22.17;13.30;;;1.40;99.90;;;;;;4972789;28;20901;-60
2023/03/10 01:56:22;;;;;;;21.83;12.98;;;1.50;99.90;;;;;;4952940;28;20245;-60
2023/03/10 01:58:49;;;;;;;25.63;14.18;;;1.50;99.90;;;;;;4953515;28;20500;-60
2023/03/10 02:01:16;;;;;;;23.83;13.70;;;1.40;99.90;;;;;;4972350;28;20051;-60
2023/03/10 02:03:53;;;;;;;24.55;13.93;;;1.50;99.90;;;;;;4971867;28;20180;-60
2023/03/10 02:06:21;;;;;;;23.83;14.15;;;1.50;99.90;;;;;;4970239;28;20108;-60
2023/03/10 02:08:51;;;;;;;26.30;14.23;;;1.50;99.90;;;;;;4952538;28;20161;-60
2023/03/10 02:11:18;;;;;;;25.45;14.80;;;1.40;99.90;;;;;;4937123;28;20849;-59
2023/03/10 02:13:44;;;;;;;24.33;14.82;;;1.50;99.90;;;;;;4948390;28;20057;-60
2023/03/10 02:16:11;;;;;;;27.38;15.95;;;1.40;99.90;;;;;;4968739;28;21753;-59
2023/03/10 02:18:37;;;;;;;27.20;15.70;;;1.50;99.90;;;;;;4968693;28;20058;-61
2023/03/10 02:21:42;;;;;;;27.10;15.80;;;1.40;99.90;;;;;;4966678;28;20057;-59
2023/03/10 02:24:08;;;;;;;24.70;15.25;;;1.50;99.90;;;;;;4969765;28;20049;-60
2023/03/10 02:26:56;;;;;;;26.05;15.10;;;1.50;99.90;;;;;;4946212;28;20046;-61
2023/03/10 02:29:45;;;;;;;26.88;14.98;;;1.40;99.90;;;;;;4978005;28;20413;-60
2023/03/10 02:32:13;;;;;;;24.77;15.20;;;1.40;99.90;;;;;;4949597;28;20137;-60
2023/03/10 02:34:39;;;;;;;24.77;15.40;;;1.40;99.90;;;;;;4968923;28;20038;-61
2023/03/10 02:37:05;;;;;;;22.98;14.10;;;1.40;99.90;;;;;;4967587;28;20050;-60
2023/03/10 02:39:30;;;;;;;24.48;14.10;;;1.50;99.90;;;;;;4945051;28;20047;-59
2023/03/10 02:41:56;;;;;;;24.95;13.98;;;1.40;99.90;;;;;;4913736;28;20516;-61
2023/03/10 02:44:24;;;;;;;22.10;14.43;;;1.30;99.90;;;;;;4957666;28;20164;-60
2023/03/10 02:46:50;;;;;;;23.52;14.07;;;1.40;99.90;;;;;;4968892;28;20060;-59
2023/03/10 02:49:18;;;;;;;24.52;14.68;;;1.30;99.90;;;;;;4971209;28;20042;-60
2023/03/10 02:51:45;;;;;;;25.38;14.95;;;1.30;99.90;;;;;;4951212;28;20095;-60
2023/03/10 02:54:12;;;;;;;24.42;14.32;;;1.30;99.90;;;;;;4971380;28;20054;-60
2023/03/10 02:56:38;;;;;;;28.98;14.95;;;1.40;99.90;;;;;;4944808;28;20084;-59
2023/03/10 02:59:06;;;;;;;24.95;15.07;;;1.30;99.90;;;;;;4970146;28;20050;-61
2023/03/10 03:01:32;;;;;;;27.58;15.60;;;1.30;99.90;;;;;;4970310;28;20046;-60
2023/03/10 03:03:58;;;;;;;27.48;15.25;;;1.20;99.90;;;;;;4970406;28;20041;-59
2023/03/10 03:06:24;;;;;;;29.63;17.35;;;1.20;99.90;;;;;;4953096;28;20046;-59
2023/03/10 03:08:50;;;;;;;28.08;16.63;;;1.30;99.90;;;;;;4951980;28;20065;-58
2023/03/10 03:11:16;;;;;;;32.13;17.67;;;1.20;99.90;;;;;;4961194;28;20043;-59
2023/03/10 03:13:42;;;;;;;32.50;18.95;;;1.20;99.90;;;;;;4952835;28;20054;-60
2023/03/10 03:16:09;;;;;;;34.60;19.08;;;1.10;99.90;;;;;;4951457;28;20058;-61
2023/03/10 03:18:35;;;;;;;35.92;19.92;;;1.20;99.90;;;;;;4949510;28;20630;-59
2023/03/10 03:21:10;;;;;;;35.75;20.15;;;1.10;99.90;;;;;;4947960;28;20425;-59
2023/03/10 03:23:37;;;;;;;32.58;19.17;;;1.20;99.90;;;;;;4952360;28;20050;-59
2023/03/10 03:26:03;;;;;;;33.67;19.15;;;1.20;99.90;;;;;;4967850;28;20042;-60
2023/03/10 03:28:29;;;;;;;36.17;19.55;;;1.20;99.90;;;;;;4971605;28;20039;-61
2023/03/10 03:30:56;;;;;;;35.03;19.17;;;1.20;99.90;;;;;;4968112;28;20057;-60
2023/03/10 03:33:22;;;;;;;32.08;18.55;;;1.20;99.90;;;;;;4961200;28;20161;-61
2023/03/10 03:35:48;;;;;;;35.08;19.38;;;1.20;99.90;;;;;;4977967;28;20520;-59
2023/03/10 03:38:14;;;;;;;32.38;18.77;;;1.20;99.90;;;;;;4977634;28;20492;-59
2023/03/10 03:40:40;;;;;;;35.92;19.42;;;1.20;99.90;;;;;;4979537;28;20121;-60
2023/03/10 03:43:06;;;;;;;32.35;18.92;;;1.30;99.90;;;;;;4980502;28;20054;-60
2023/03/10 03:45:32;;;;;;;36.05;20.15;;;1.20;99.90;;;;;;4977807;28;20042;-60
2023/03/10 03:47:58;;;;;;;36.05;19.77;;;1.20;99.90;;;;;;4949820;28;20049;-59
2023/03/10 03:50:25;;;;;;;33.35;19.42;;;1.20;99.90;;;;;;4965676;28;21310;-61
2023/03/10 03:52:51;;;;;;;35.13;19.35;;;1.20;99.90;;;;;;4933903;28;20096;-61
2023/03/10 03:55:18;;;;;;;34.47;19.85;;;1.20;99.90;;;;;;4968180;28;20145;-60
2023/03/10 03:57:44;;;;;;;34.78;19.48;;;1.20;99.90;;;;;;4952692;28;20133;-60
2023/03/10 04:00:15;;;;;;;36.08;19.52;;;1.20;99.90;;;;;;4966382;28;20085;-60
2023/03/10 04:02:41;;;;;;;33.75;19.13;;;1.20;99.90;;;;;;4969076;28;20046;-61
2023/03/10 04:05:07;;;;;;;31.75;19.00;;;1.20;99.90;;;;;;4974335;28;20492;-59
2023/03/10 04:07:33;;;;;;;35.33;19.58;;;1.20;99.90;;;;;;4980634;28;20046;-60
2023/03/10 04:10:00;;;;;;;36.53;19.63;;;1.20;99.90;;;;;;4968777;28;20057;-60
2023/03/10 04:12:28;;;;;;;32.95;19.42;;;1.20;99.90;;;;;;4966210;28;20042;-59
2023/03/10 04:14:54;;;;;;;33.95;20.10;;;1.20;99.90;;;;;;4952084;28;20507;-60
2023/03/10 04:17:20;;;;;;;34.75;19.58;;;1.20;99.90;;;;;;4968686;28;20050;-60
2023/03/10 04:19:46;;;;;;;32.15;18.67;;;1.20;99.90;;;;;;4968802;28;20057;-61
2023/03/10 04:22:11;;;;;;;35.17;19.92;;;1.20;99.90;;;;;;4951458;28;20054;-60
2023/03/10 04:24:38;;;;;;;34.72;19.23;;;1.20;99.90;;;;;;4968616;28;20054;-60
2023/03/10 04:27:04;;;;;;;35.90;19.92;;;1.10;99.90;;;;;;4949928;28;20050;-59
2023/03/10 04:29:30;;;;;;;37.20;20.30;;;1.10;99.90;;;;;;4972807;28;20038;-59
2023/03/10 04:31:56;;;;;;;40.35;20.58;;;1.10;99.90;;;;;;4914563;28;20247;-59
2023/03/10 04:34:22;;;;;;;40.05;21.13;;;1.10;99.90;;;;;;4968604;28;20054;-61
2023/03/10 04:36:47;;;;;;;39.38;21.73;;;1.10;99.90;;;;;;4968067;28;20129;-60
2023/03/10 04:39:14;;;;;;;39.83;21.33;;;1.10;99.90;;;;;;4952365;28;20046;-59
2023/03/10 04:41:40;;;;;;;45.50;22.73;;;1.10;99.90;;;;;;4948782;28;20046;-60
2023/03/10 04:44:06;;;;;;;46.25;24.35;;;1.10;99.90;;;;;;4930565;28;20424;-60
2023/03/10 04:46:32;;;;;;;50.35;25.50;;;1.10;99.90;;;;;;4959271;28;20046;-59
2023/03/10 04:48:57;;;;;;;52.72;26.63;;;1.10;99.90;;;;;;4952482;28;20046;-59
2023/03/10 04:51:23;;;;;;;52.10;26.25;;;1.10;99.90;;;;;;4948369;28;20054;-60
2023/03/10 04:53:49;;;;;;;51.03;26.38;;;1.10;99.90;;;;;;4930394;28;20097;-60
2023/03/10 04:56:15;;;;;;;53.95;27.00;;;1.10;99.90;;;;;;4945041;28;20046;-58
2023/03/10 04:58:41;;;;;;;59.97;28.40;;;1.00;99.90;;;;;;4973706;28;22221;-60
2023/03/10 05:01:13;;;;;;;57.22;28.33;;;1.00;99.90;;;;;;4967712;28;20038;-59
2023/03/10 05:03:38;;;;;;;67.72;30.67;;;1.00;99.90;;;;;;4951572;28;20047;-59
2023/03/10 05:06:14;;;;;;;66.35;31.90;;;1.00;99.90;;;;;;4950742;28;20070;-60
2023/03/10 05:08:40;;;;;;;63.08;30.27;;;1.00;99.90;;;;;;4949575;28;20050;-59
2023/03/10 05:11:07;;;;;;;64.60;31.90;;;1.00;99.90;;;;;;4948618;28;20042;-60
2023/03/10 05:13:33;;;;;;;66.75;31.92;;;1.00;99.90;;;;;;4962814;28;20113;-58
2023/03/10 05:15:58;;;;;;;71.25;33.22;;;0.90;99.90;;;;;;4972345;28;20125;-60
2023/03/10 05:18:24;;;;;;;73.75;33.25;;;0.90;99.90;;;;;;4973752;28;20050;-61
2023/03/10 05:20:55;;;;;;;72.28;33.10;;;0.90;99.90;;;;;;4971010;28;20133;-60
2023/03/10 05:23:21;;;;;;;74.85;33.00;;;0.90;99.90;;;;;;4971461;28;20552;-60
2023/03/10 05:25:47;;;;;;;67.03;31.95;;;0.90;99.90;;;;;;4952225;28;20477;-60
2023/03/10 05:28:13;;;;;;;69.63;33.05;;;1.00;99.90;;;;;;4940445;28;20070;-60
2023/03/10 05:30:39;;;;;;;67.25;31.42;;;0.90;99.90;;;;;;4950364;28;20117;-60
2023/03/10 05:33:05;;;;;;;62.40;30.42;;;0.80;99.90;;;;;;4973385;28;20056;-61
2023/03/10 05:35:31;;;;;;;62.95;30.13;;;0.80;99.90;;;;;;4953036;28;20054;-59
2023/03/10 05:37:56;;;;;;;64.32;30.00;;;0.80;99.90;;;;;;4972868;28;20409;-60
2023/03/10 05:40:22;;;;;;;60.90;28.80;;;0.80;99.90;;;;;;4971620;28;20495;-60
2023/03/10 05:42:49;;;;;;;57.75;28.63;;;0.90;99.90;;;;;;4973260;28;20046;-60
2023/03/10 05:45:15;;;;;;;56.55;27.58;;;0.80;99.90;;;;;;4956918;28;20054;-60
2023/03/10 05:47:41;;;;;;;57.88;28.38;;;0.80;99.90;;;;;;4971552;28;20111;-60
2023/03/10 05:50:08;;;;;;;57.97;26.90;;;0.80;99.90;;;;;;4932001;28;20049;-60
2023/03/10 05:52:42;;;;;;;48.60;25.48;;;0.80;99.90;;;;;;4944817;28;20152;-61
2023/03/10 05:55:11;;;;;;;52.88;25.65;;;0.80;99.90;;;;;;4972329;28;20128;-61
2023/03/10 05:57:37;;;;;;;53.63;25.63;;;0.70;99.90;;;;;;4956423;28;20569;-60
2023/03/10 06:00:05;;;;;;;52.63;25.42;;;0.70;99.90;;;;;;4955291;28;20058;-59
2023/03/10 06:02:30;;;;;;;45.53;23.63;;;0.70;99.90;;;;;;4967855;28;20078;-61
2023/03/10 06:04:56;;;;;;;48.72;24.13;;;0.70;99.90;;;;;;4971958;28;20449;-61
2023/03/10 06:07:22;;;;;;;48.95;24.48;;;0.70;99.90;;;;;;4966258;28;20047;-59
2023/03/10 06:09:48;;;;;;;50.58;23.58;;;0.70;99.90;;;;;;4968521;28;20058;-59
2023/03/10 06:12:13;;;;;;;48.15;23.77;;;0.70;99.90;;;;;;4967577;28;20046;-59
2023/03/10 06:14:39;;;;;;;45.75;23.13;;;0.70;99.90;;;;;;4948575;28;20042;-60
2023/03/10 06:17:05;;;;;;;47.15;23.15;;;0.70;99.90;;;;;;4968098;28;20452;-61
2023/03/10 06:19:31;;;;;;;44.33;21.48;;;0.70;99.90;;;;;;4946587;28;20592;-61
2023/03/10 06:21:56;;;;;;;43.83;21.75;;;0.70;99.90;;;;;;4932615;28;20050;-60
2023/03/10 06:24:22;;;;;;;38.05;19.83;;;0.70;99.90;;;;;;4964730;28;20050;-60
2023/03/10 06:26:49;;;;;;;46.88;21.27;;;0.60;99.90;;;;;;4947964;28;20060;-60
2023/03/10 06:29:14;;;;;;;42.08;20.90;;;0.60;99.90;;;;;;4972785;28;20066;-60
2023/03/10 06:31:40;;;;;;;43.92;19.55;;;0.60;99.90;;;;;;4960022;28;20221;-61
2023/03/10 06:34:06;;;;;;;41.97;20.88;;;0.60;99.90;;;;;;4963798;28;20054;-61
2023/03/10 06:36:32;;;;;;;42.03;21.33;;;0.60;99.90;;;;;;4962372;28;20065;-59
2023/03/10 06:38:58;;;;;;;40.97;20.52;;;0.60;99.90;;;;;;4978087;28;20400;-61
2023/03/10 06:41:26;;;;;;;45.05;21.17;;;0.60;99.90;;;;;;4976744;28;20078;-60
2023/03/10 06:43:52;;;;;;;43.22;21.02;;;0.60;99.90;;;;;;4978869;28;20053;-59
2023/03/10 06:46:18;;;;;;;49.88;22.45;;;0.60;99.90;;;;;;4958631;28;20043;-60
2023/03/10 06:48:44;;;;;;;43.67;21.73;;;0.60;99.90;;;;;;4979914;28;20051;-61
2023/03/10 06:51:14;;;;;;;50.15;22.70;;;0.60;99.90;;;;;;4976873;28;20390;-59
2023/03/10 06:53:40;;;;;;;47.85;23.50;;;0.60;99.90;;;;;;4961496;28;20058;-60
2023/03/10 06:56:15;;;;;;;52.65;23.58;;;0.60;99.90;;;;;;4960055;28;20111;-60
2023/03/10 06:58:42;;;;;;;52.25;23.95;;;0.60;99.90;;;;;;4980197;28;20129;-60
2023/03/10 07:01:08;;;;;;;51.28;22.77;;;0.60;99.90;;;;;;4981838;28;20057;-60
2023/03/10 07:03:35;;;;;;;56.70;25.05;;;0.50;99.90;;;;;;4972669;28;20061;-61
2023/03/10 07:06:01;;;;;;;61.17;25.65;;;0.60;99.90;;;;;;4968226;28;20046;-61
2023/03/10 07:08:27;;;;;;;55.90;25.10;;;0.60;99.90;;;;;;4965292;28;20049;-61
2023/03/10 07:10:55;;;;;;;55.95;24.70;;;0.60;99.90;;;;;;4949938;28;20046;-64
2023/03/10 07:13:21;;;;;;;51.22;25.08;;;0.60;99.90;;;;;;4951517;28;20050;-65
2023/03/10 07:15:48;;;;;;;54.22;25.52;;;0.60;99.90;;;;;;4949930;28;20046;-65
2023/03/10 07:18:14;;;;;;;55.40;24.83;;;0.60;99.90;;;;;;4955023;28;20057;-64
2023/03/10 07:20:43;;;;;;;51.15;24.15;;;0.60;99.90;;;;;;4951253;28;20069;-64
2023/03/10 07:23:10;;;;;;;54.63;25.58;;;0.60;99.90;;;;;;4936195;28;20161;-65
2023/03/10 07:25:36;;;;;;;50.45;23.02;;;0.60;99.90;;;;;;4950830;28;20740;-64
2023/03/10 07:28:03;;;;;;;48.60;23.95;;;0.80;99.90;;;;;;4952992;28;20528;-64
2023/03/10 07:30:29;;;;;;;44.40;22.30;;;0.70;99.90;;;;;;4934377;28;20058;-65
2023/03/10 07:32:55;;;;;;;45.10;21.17;;;0.70;99.90;;;;;;4931712;28;20121;-64
2023/03/10 07:35:21;;;;;;;42.95;21.80;;;0.80;99.90;;;;;;4937662;28;20497;-65
2023/03/10 07:37:47;;;;;;;42.78;21.10;;;0.70;99.90;;;;;;4952707;28;20112;-64
2023/03/10 07:40:13;;;;;;;46.38;21.55;;;0.70;99.90;;;;;;4919010;28;20060;-66
2023/03/10 07:42:40;;;;;;;42.20;21.38;;;0.80;99.90;;;;;;4935498;28;20046;-66
2023/03/10 07:45:06;;;;;;;43.95;21.23;;;0.80;99.90;;;;;;4951299;28;20124;-65
2023/03/10 07:47:32;;;;;;;42.33;21.75;;;0.80;99.90;;;;;;4951458;28;20046;-65
2023/03/10 07:49:58;;;;;;;41.90;21.45;;;0.80;99.90;;;;;;4939245;28;21758;-66
2023/03/10 07:52:24;;;;;;;42.63;21.92;;;0.80;99.90;;;;;;4950746;28;20042;-66
2023/03/10 07:54:49;;;;;;;48.90;22.40;;;0.90;99.90;;;;;;4950090;28;20050;-65
2023/03/10 07:57:15;;;;;;;47.05;22.23;;;0.90;99.90;;;;;;4967042;28;20042;-64
2023/03/10 07:59:42;;;;;;;44.60;22.02;;;0.90;99.90;;;;;;4934627;28;20050;-64
2023/03/10 08:02:11;;;;;;;44.95;23.15;;;0.90;99.90;;;;;;4941322;28;20042;-66
2023/03/10 08:04:37;;;;;;;43.17;22.05;;;1.00;99.90;;;;;;4934331;28;20500;-66
2023/03/10 08:07:03;;;;;;;37.58;20.33;;;0.90;99.90;;;;;;4934714;28;20050;-64
2023/03/10 08:09:29;;;;;;;39.35;20.70;;;1.00;99.90;;;;;;4949450;28;20425;-65
2023/03/10 08:11:57;;;;;;;39.28;20.02;;;1.00;99.90;;;;;;4945402;28;21148;-65
2023/03/10 08:14:23;;;;;;;40.00;20.65;;;0.90;99.90;;;;;;4960295;28;20050;-66
2023/03/10 08:16:50;;;;;;;39.38;19.60;;;1.00;99.90;;;;;;4949833;28;20077;-66
2023/03/10 08:19:16;;;;;;;35.60;20.05;;;1.00;99.90;;;;;;4941197;28;20068;-65
2023/03/10 08:21:42;;;;;;;37.63;20.10;;;1.00;99.90;;;;;;4950335;28;20537;-66
2023/03/10 08:24:09;;;;;;;38.80;19.85;;;1.00;99.90;;;;;;4950447;28;20190;-65
2023/03/10 08:26:35;;;;;;;39.20;20.60;;;1.00;99.90;;;;;;4948879;28;20081;-66
2023/03/10 08:29:01;;;;;;;39.08;20.35;;;1.00;99.90;;;;;;4962072;28;20380;-65
2023/03/10 08:31:27;;;;;;;37.47;19.98;;;1.00;99.90;;;;;;4943152;28;20111;-66
2023/03/10 08:33:56;;;;;;;40.17;21.58;;;1.00;99.90;;;;;;4931647;28;20054;-67
2023/03/10 08:36:25;;;;;;;42.20;21.25;;;1.00;99.90;;;;;;4960914;28;20085;-67
2023/03/10 08:38:52;;;;;;;42.22;21.77;;;1.00;99.90;;;;;;4948706;28;20042;-66
2023/03/10 08:41:28;;;;;;;40.38;21.63;;;1.00;99.90;;;;;;4949547;28;20042;-66
2023/03/10 08:43:56;;;;;;;41.58;21.88;;;1.10;99.90;;;;;;4952044;28;20780;-67
2023/03/10 08:46:23;;;;;;;42.90;22.13;;;1.10;99.90;;;;;;4950671;28;20053;-67
2023/03/10 08:48:49;;;;;;;43.55;22.08;;;1.10;99.90;;;;;;4949528;28;20137;-67
2023/03/10 08:51:16;;;;;;;43.10;23.35;;;1.10;99.90;;;;;;4953527;28;20069;-67
2023/03/10 08:53:45;;;;;;;40.50;20.98;;;1.10;99.90;;;;;;4972828;28;20065;-67
2023/03/10 08:56:11;;;;;;;37.20;20.30;;;1.20;99.90;;;;;;4954362;28;20054;-67
2023/03/10 08:58:37;;;;;;;39.50;21.23;;;1.20;99.90;;;;;;4938221;28;20046;-67
2023/03/10 09:01:04;;;;;;;40.63;20.73;;;1.20;99.90;;;;;;4944449;28;20085;-68
2023/03/10 09:03:30;;;;;;;42.22;21.75;;;1.20;99.90;;;;;;4946214;28;20164;-67
2023/03/10 09:05:56;;;;;;;38.05;21.02;;;1.20;99.90;;;;;;4956538;28;20945;-67
2023/03/10 09:08:22;;;;;;;38.63;21.33;;;1.20;99.90;;;;;;4954845;28;20148;-67
2023/03/10 09:10:48;;;;;;;38.78;21.08;;;1.20;99.90;;;;;;4929559;28;20153;-67
2023/03/10 09:13:14;;;;;;;38.35;20.65;;;1.20;99.90;;;;;;4924543;28;20055;-67
2023/03/10 09:15:40;;;;;;;37.30;20.25;;;1.20;99.90;;;;;;4947515;28;20129;-67
2023/03/10 09:18:08;;;;;;;37.60;20.25;;;1.20;99.90;;;;;;4953048;28;20080;-67
2023/03/10 09:20:34;;;;;;;40.63;20.75;;;1.20;99.90;;;;;;4947118;28;20052;-67
2023/03/10 09:23:00;;;;;;;36.55;19.92;;;1.20;99.90;;;;;;4954114;28;20480;-67
2023/03/10 09:25:26;;;;;;;37.13;20.45;;;1.20;99.90;;;;;;4936430;28;20046;-67
2023/03/10 09:27:52;;;;;;;35.20;19.05;;;1.20;99.90;;;;;;4934767;28;20532;-68
2023/03/10 09:30:18;;;;;;;36.88;19.90;;;1.20;99.90;;;;;;4967526;28;20505;-67
2023/03/10 09:32:44;;;;;;;41.83;19.70;;;1.30;99.90;;;;;;4953972;28;20054;-67
2023/03/10 09:35:10;;;;;;;37.15;19.92;;;1.20;99.90;;;;;;4953020;28;21069;-68
2023/03/10 09:37:36;;;;;;;37.53;19.52;;;1.30;99.90;;;;;;4937931;28;20059;-67
2023/03/10 09:40:04;;;;;;;37.65;19.73;;;1.20;99.90;;;;;;4947126;28;20061;-68
2023/03/10 09:42:37;;;;;;;35.80;19.08;;;1.30;99.90;;;;;;4951310;28;20042;-68
2023/03/10 09:45:19;;;;;;;36.42;19.50;;;1.30;99.90;;;;;;4954115;28;20448;-68
2023/03/10 09:48:24;;;;;;;33.47;18.57;;;1.30;99.90;;;;;;4971399;28;20145;-68
2023/03/10 09:50:52;;;;;;;35.25;18.83;;;1.30;99.90;;;;;;4941390;28;20293;-68
2023/03/10 09:53:25;;;;;;;37.55;18.52;;;1.30;99.90;;;;;;4957541;28;20123;-68
2023/03/10 09:55:52;;;;;;;36.63;18.85;;;1.20;99.90;;;;;;4952894;28;20057;-68
2023/03/10 09:58:35;;;;;;;34.00;18.80;;;1.30;99.90;;;;;;4908429;28;20053;-68
2023/03/10 10:01:04;;;;;;;37.47;19.23;;;1.20;99.90;;;;;;4952888;28;20125;-68
2023/03/10 10:03:35;;;;;;;35.70;19.52;;;1.20;99.90;;;;;;4950409;28;20050;-67
2023/03/10 10:06:03;;;;;;;33.65;17.67;;;1.20;99.90;;;;;;4947342;28;20174;-67
2023/03/10 10:08:46;;;;;;;37.70;19.65;;;1.20;99.90;;;;;;4953472;28;20054;-67
2023/03/10 10:11:16;;;;;;;35.75;19.90;;;1.20;99.90;;;;;;4953136;28;20096;-67
2023/03/10 10:13:42;;;;;;;35.58;19.13;;;1.20;99.90;;;;;;4939815;28;20050;-67
2023/03/10 10:16:31;;;;;;;34.15;19.20;;;1.30;99.90;;;;;;4953298;28;20088;-67
2023/03/10 10:19:04;;;;;;;40.47;20.30;;;1.30;99.90;;;;;;4954038;28;20505;-67
2023/03/10 10:21:55;;;;;;;37.03;20.33;;;1.40;99.90;;;;;;4969487;28;20082;-67
2023/03/10 10:24:21;;;;;;;41.72;20.48;;;1.40;99.90;;;;;;4953034;28;20057;-67
2023/03/10 10:26:47;;;;;;;40.03;20.85;;;1.40;99.90;;;;;;4922335;28;20047;-67
2023/03/10 10:29:21;;;;;;;35.63;19.50;;;1.40;99.90;;;;;;4954829;28;20113;-66
2023/03/10 10:32:14;;;;;;;36.30;20.00;;;1.40;99.90;;;;;;4956640;28;20047;-67
2023/03/10 10:34:42;;;;;;;31.23;17.88;;;1.50;99.90;;;;;;4954172;28;20055;-67
2023/03/10 10:37:26;;;;;;;33.00;19.10;;;1.40;99.90;;;;;;4965738;28;20050;-67
2023/03/10 10:39:54;;;;;;;35.00;17.58;;;1.50;99.90;;;;;;4954370;28;20057;-67
2023/03/10 10:42:32;;;;;;;33.70;17.73;;;1.40;99.90;;;;;;4972565;28;21033;-67
2023/03/10 10:45:04;;;;;;;32.85;19.20;;;1.40;99.90;;;;;;4952316;28;20177;-67
2023/03/10 10:47:45;;;;;;;36.08;19.08;;;1.40;99.90;;;;;;4955151;28;20049;-67
2023/03/10 10:50:19;;;;;;;35.53;18.88;;;1.40;99.90;;;;;;4954167;28;20073;-66
2023/03/10 10:52:49;;;;;;;31.70;18.10;;;1.50;99.90;;;;;;4955767;28;21969;-67
2023/03/10 10:55:33;;;;;;;33.90;19.90;;;1.50;99.90;;;;;;4918166;28;20065;-67
2023/03/10 10:58:05;;;;;;;34.50;18.77;;;1.50;99.90;;;;;;4937752;28;20050;-67
2023/03/10 11:00:38;;;;;;;31.20;17.90;;;1.50;99.90;;;;;;4954057;28;20050;-67
2023/03/10 11:03:40;;;;;;;33.30;17.38;;;1.60;99.90;;;;;;4950764;28;20097;-66
2023/03/10 11:06:33;;;;;;;35.90;18.83;;;1.50;99.90;;;;;;4950757;28;20042;-66
2023/03/10 11:09:26;;;;;;;33.28;18.35;;;1.60;99.90;;;;;;4951271;28;20125;-66
2023/03/10 11:12:40;;;;;;;35.25;18.48;;;1.50;99.90;;;;;;4934055;28;20049;-67
2023/03/10 11:15:26;;;;;;;33.75;18.80;;;1.50;99.90;;;;;;4951600;28;20085;-66
2023/03/10 11:18:06;;;;;;;34.85;18.33;;;1.50;99.90;;;;;;4952724;28;20053;-67
2023/03/10 11:21:05;;;;;;;32.80;19.38;;;1.40;99.90;;;;;;4953481;28;20042;-67
2023/03/10 11:24:06;;;;;;;34.25;18.73;;;1.40;99.90;;;;;;4911374;28;20058;-67
2023/03/10 11:26:46;;;;;;;35.78;19.00;;;1.40;99.90;;;;;;4948139;28;20042;-67
2023/03/10 11:29:23;;;;;;;37.45;19.27;;;1.40;99.90;;;;;;4953590;28;20057;-67
2023/03/10 11:32:20;;;;;;;36.22;19.27;;;1.40;99.90;;;;;;4947552;28;20042;-67
2023/03/10 11:34:52;;;;;;;37.13;19.17;;;1.30;99.90;;;;;;4952669;28;20053;-67
2023/03/10 11:37:45;;;;;;;38.60;20.23;;;1.30;99.90;;;;;;4936607;28;20180;-67
2023/03/10 11:40:36;;;;;;;39.05;21.35;;;1.30;99.90;;;;;;4972637;28;20503;-67
2023/03/10 11:43:24;;;;;;;37.97;19.85;;;1.30;99.90;;;;;;4950305;28;20576;-67
2023/03/10 11:45:53;;;;;;;43.15;21.80;;;1.30;99.90;;;;;;4947613;28;20672;-67
2023/03/10 11:48:35;;;;;;;39.80;20.85;;;1.30;99.90;;;;;;4952876;28;20222;-67
2023/03/10 11:51:03;;;;;;;40.57;21.57;;;1.30;99.90;;;;;;4952350;28;20049;-67
2023/03/10 11:53:32;;;;;;;41.20;21.83;;;1.30;99.90;;;;;;4953968;28;20424;-67
2023/03/10 11:56:00;;;;;;;43.35;22.70;;;1.30;99.90;;;;;;4947768;28;20069;-67
2023/03/10 11:58:54;;;;;;;38.33;21.33;;;1.30;99.90;;;;;;4952625;28;20064;-67
2023/03/10 12:01:46;;;;;;;37.40;21.27;;;1.30;99.90;;;;;;4966166;28;20046;-67
2023/03/10 12:04:34;;;;;;;38.70;21.17;;;1.30;99.90;;;;;;4945263;28;20047;-67
2023/03/10 12:07:11;;;;;;;38.17;21.45;;;1.30;99.90;;;;;;4948855;28;20046;-67
2023/03/10 12:09:53;;;;;;;38.25;21.20;;;1.30;99.90;;;;;;4968055;28;21104;-67
2023/03/10 12:12:30;;;;;;;37.65;21.65;;;1.20;99.90;;;;;;4950355;28;23598;-67
2023/03/10 12:14:59;;;;;;;41.65;22.67;;;1.20;99.90;;;;;;4944862;28;20069;-67
2023/03/10 12:17:26;;;;;;;40.15;22.02;;;1.20;99.90;;;;;;4947531;28;20092;-67
2023/03/10 12:20:22;;;;;;;43.05;23.33;;;1.20;99.90;;;;;;4934973;28;20507;-67
2023/03/10 12:23:10;;;;;;;42.28;22.60;;;1.20;99.90;;;;;;4940154;28;20050;-67
2023/03/10 12:25:38;;;;;;;43.13;22.73;;;1.20;99.90;;;;;;4967419;28;20042;-67
2023/03/10 12:28:23;;;;;;;40.33;22.25;;;1.10;99.90;;;;;;4970153;28;20052;-67
2023/03/10 12:30:57;;;;;;;47.03;24.08;;;1.10;99.90;;;;;;4946920;28;20862;-67
2023/03/10 12:33:29;;;;;;;44.17;23.98;;;1.10;99.90;;;;;;4952410;28;20501;-67
2023/03/10 12:36:11;;;;;;;51.33;25.47;;;1.10;99.90;;;;;;4978583;28;20129;-67
2023/03/10 12:38:47;;;;;;;43.50;23.00;;;1.10;99.90;;;;;;4961610;28;20046;-67
2023/03/10 12:41:52;;;;;;;47.13;24.40;;;1.10;99.90;;;;;;4959597;28;20084;-67
2023/03/10 12:44:21;;;;;;;46.05;23.92;;;1.10;99.90;;;;;;4960535;28;20050;-67
2023/03/10 12:47:07;;;;;;;46.50;24.38;;;1.10;99.90;;;;;;4956461;28;20046;-67
2023/03/10 12:49:39;;;;;;;48.47;25.05;;;1.10;99.90;;;;;;4934603;28;20092;-67